sensor_id;sensor_type;location;lat;lon;timestamp;pressure;altitude;pressure_sealevel;temperature
20289;BMP180;10303;51.960;8.372;2023-04-15T00:01:27;99788.00;;;9.70
20289;BMP180;10303;51.960;8.372;2023-04-15T00:03:54;99784.00;;;9.70
20289;BMP180;10303;51.960;8.372;2023-04-15T00:06:21;99788.00;;;9.60
20289;BMP180;10303;51.960;8.372;2023-04-15T00:08:48;99788.00;;;9.60
20289;BMP180;10303;51.960;8.372;2023-04-15T00:11:16;99789.00;;;9.50
20289;BMP180;10303;51.960;8.372;2023-04-15T00:13:43;99785.00;;;9.50
20289;BMP180;10303;51.960;8.372;2023-04-15T00:16:09;99788.00;;;9.50
20289;BMP180;10303;51.960;8.372;2023-04-15T00:18:36;99790.00;;;9.40
20289;BMP180;10303;51.960;8.372;2023-04-15T00:21:04;99784.00;;;9.40
20289;BMP180;10303;51.960;8.372;2023-04-15T00:23:30;99777.00;;;9.40
20289;BMP180;10303;51.960;8.372;2023-04-15T00:25:56;99779.00;;;9.30
20289;BMP180;10303;51.960;8.372;2023-04-15T00:28:22;99773.00;;;9.30
20289;BMP180;10303;51.960;8.372;2023-04-15T00:30:49;99774.00;;;9.30
20289;BMP180;10303;51.960;8.372;2023-04-15T00:33:15;99772.00;;;9.20
20289;BMP180;10303;51.960;8.372;2023-04-15T00:35:41;99774.00;;;9.20
20289;BMP180;10303;51.960;8.372;2023-04-15T00:38:08;99766.00;;;9.20
20289;BMP180;10303;51.960;8.372;2023-04-15T00:40:34;99771.00;;;9.20
20289;BMP180;10303;51.960;8.372;2023-04-15T00:43:00;99769.00;;;9.10
20289;BMP180;10303;51.960;8.372;2023-04-15T00:45:26;99775.00;;;9.10
20289;BMP180;10303;51.960;8.372;2023-04-15T00:47:54;99772.00;;;9.10
20289;BMP180;10303;51.960;8.372;2023-04-15T00:50:20;99778.00;;;9.00
20289;BMP180;10303;51.960;8.372;2023-04-15T00:52:47;99771.00;;;9.00
20289;BMP180;10303;51.960;8.372;2023-04-15T00:55:14;99777.00;;;8.90
20289;BMP180;10303;51.960;8.372;2023-04-15T00:57:41;99775.00;;;8.90
20289;BMP180;10303;51.960;8.372;2023-04-15T01:00:08;99771.00;;;8.90
20289;BMP180;10303;51.960;8.372;2023-04-15T01:02:36;99774.00;;;8.80
20289;BMP180;10303;51.960;8.372;2023-04-15T01:05:03;99772.00;;;8.80
20289;BMP180;10303;51.960;8.372;2023-04-15T01:07:30;99765.00;;;8.80
20289;BMP180;10303;51.960;8.372;2023-04-15T01:09:56;99774.00;;;8.70
20289;BMP180;10303;51.960;8.372;2023-04-15T01:12:25;99761.00;;;8.70
20289;BMP180;10303;51.960;8.372;2023-04-15T01:14:53;99768.00;;;8.70
20289;BMP180;10303;51.960;8.372;2023-04-15T01:17:20;99760.00;;;8.60
20289;BMP180;10303;51.960;8.372;2023-04-15T01:19:46;99759.00;;;8.60
20289;BMP180;10303;51.960;8.372;2023-04-15T01:22:12;99758.00;;;8.60
20289;BMP180;10303;51.960;8.372;2023-04-15T01:24:38;99749.00;;;8.60
20289;BMP180;10303;51.960;8.372;2023-04-15T01:27:04;99756.00;;;8.50
20289;BMP180;10303;51.960;8.372;2023-04-15T01:29:34;99761.00;;;8.50
20289;BMP180;10303;51.960;8.372;2023-04-15T01:32:00;99758.00;;;8.50
20289;BMP180;10303;51.960;8.372;2023-04-15T01:34:26;99763.00;;;8.50
20289;BMP180;10303;51.960;8.372;2023-04-15T01:36:53;99763.00;;;8.40
20289;BMP180;10303;51.960;8.372;2023-04-15T01:39:20;99777.00;;;8.40
20289;BMP180;10303;51.960;8.372;2023-04-15T01:41:47;99772.00;;;8.40
20289;BMP180;10303;51.960;8.372;2023-04-15T01:44:15;99779.00;;;8.40
20289;BMP180;10303;51.960;8.372;2023-04-15T01:46:41;99766.00;;;8.30
20289;BMP180;10303;51.960;8.372;2023-04-15T01:49:07;99773.00;;;8.30
20289;BMP180;10303;51.960;8.372;2023-04-15T01:51:33;99772.00;;;8.30
20289;BMP180;10303;51.960;8.372;2023-04-15T01:53:59;99772.00;;;8.20
20289;BMP180;10303;51.960;8.372;2023-04-15T01:56:25;99780.00;;;8.20
20289;BMP180;10303;51.960;8.372;2023-04-15T01:58:52;99781.00;;;8.20
20289;BMP180;10303;51.960;8.372;2023-04-15T02:01:18;99788.00;;;8.20
20289;BMP180;10303;51.960;8.372;2023-04-15T02:03:45;99782.00;;;8.20
20289;BMP180;10303;51.960;8.372;2023-04-15T02:06:11;99777.00;;;8.20
20289;BMP180;10303;51.960;8.372;2023-04-15T02:08:37;99787.00;;;8.20
20289;BMP180;10303;51.960;8.372;2023-04-15T02:11:06;99785.00;;;8.10
20289;BMP180;10303;51.960;8.372;2023-04-15T02:13:32;99787.00;;;8.10
20289;BMP180;10303;51.960;8.372;2023-04-15T02:15:58;99792.00;;;8.10
20289;BMP180;10303;51.960;8.372;2023-04-15T02:18:24;99790.00;;;8.00
20289;BMP180;10303;51.960;8.372;2023-04-15T02:20:51;99781.00;;;8.00
20289;BMP180;10303;51.960;8.372;2023-04-15T02:23:17;99771.00;;;7.90
20289;BMP180;10303;51.960;8.372;2023-04-15T02:25:43;99777.00;;;7.90
20289;BMP180;10303;51.960;8.372;2023-04-15T02:28:09;99774.00;;;7.90
20289;BMP180;10303;51.960;8.372;2023-04-15T02:30:35;99785.00;;;7.80
20289;BMP180;10303;51.960;8.372;2023-04-15T02:33:02;99790.00;;;7.80
20289;BMP180;10303;51.960;8.372;2023-04-15T02:35:29;99788.00;;;7.80
20289;BMP180;10303;51.960;8.372;2023-04-15T02:37:56;99785.00;;;7.80
20289;BMP180;10303;51.960;8.372;2023-04-15T02:40:22;99788.00;;;7.80
20289;BMP180;10303;51.960;8.372;2023-04-15T02:42:48;99781.00;;;7.80
20289;BMP180;10303;51.960;8.372;2023-04-15T02:45:16;99778.00;;;7.70
20289;BMP180;10303;51.960;8.372;2023-04-15T02:47:45;99789.00;;;7.70
20289;BMP180;10303;51.960;8.372;2023-04-15T02:50:13;99792.00;;;7.70
20289;BMP180;10303;51.960;8.372;2023-04-15T02:52:41;99794.00;;;7.70
20289;BMP180;10303;51.960;8.372;2023-04-15T02:55:09;99793.00;;;7.60
20289;BMP180;10303;51.960;8.372;2023-04-15T02:57:36;99785.00;;;7.60
20289;BMP180;10303;51.960;8.372;2023-04-15T03:00:06;99798.00;;;7.60
20289;BMP180;10303;51.960;8.372;2023-04-15T03:02:37;99796.00;;;7.60
20289;BMP180;10303;51.960;8.372;2023-04-15T03:05:05;99791.00;;;7.50
20289;BMP180;10303;51.960;8.372;2023-04-15T03:07:32;99794.00;;;7.50
20289;BMP180;10303;51.960;8.372;2023-04-15T03:09:59;99796.00;;;7.50
20289;BMP180;10303;51.960;8.372;2023-04-15T03:12:25;99784.00;;;7.40
20289;BMP180;10303;51.960;8.372;2023-04-15T03:14:54;99786.00;;;7.40
20289;BMP180;10303;51.960;8.372;2023-04-15T03:17:26;99788.00;;;7.40
20289;BMP180;10303;51.960;8.372;2023-04-15T03:19:52;99779.00;;;7.30
20289;BMP180;10303;51.960;8.372;2023-04-15T03:22:18;99782.00;;;7.30
20289;BMP180;10303;51.960;8.372;2023-04-15T03:24:45;99782.00;;;7.30
20289;BMP180;10303;51.960;8.372;2023-04-15T03:27:11;99788.00;;;7.20
20289;BMP180;10303;51.960;8.372;2023-04-15T03:29:38;99785.00;;;7.20
20289;BMP180;10303;51.960;8.372;2023-04-15T03:32:04;99786.00;;;7.20
20289;BMP180;10303;51.960;8.372;2023-04-15T03:34:33;99784.00;;;7.20
20289;BMP180;10303;51.960;8.372;2023-04-15T03:36:59;99769.00;;;7.10
20289;BMP180;10303;51.960;8.372;2023-04-15T03:39:25;99778.00;;;7.10
20289;BMP180;10303;51.960;8.372;2023-04-15T03:41:50;99778.00;;;7.10
20289;BMP180;10303;51.960;8.372;2023-04-15T03:44:16;99780.00;;;7.10
20289;BMP180;10303;51.960;8.372;2023-04-15T03:46:42;99772.00;;;7.10
20289;BMP180;10303;51.960;8.372;2023-04-15T03:49:09;99788.00;;;7.00
20289;BMP180;10303;51.960;8.372;2023-04-15T03:51:36;99781.00;;;7.00
20289;BMP180;10303;51.960;8.372;2023-04-15T03:54:01;99771.00;;;7.00
20289;BMP180;10303;51.960;8.372;2023-04-15T03:56:28;99779.00;;;7.00
20289;BMP180;10303;51.960;8.372;2023-04-15T03:58:53;99777.00;;;7.00
20289;BMP180;10303;51.960;8.372;2023-04-15T04:01:19;99780.00;;;7.00
20289;BMP180;10303;51.960;8.372;2023-04-15T04:03:45;99786.00;;;7.00
20289;BMP180;10303;51.960;8.372;2023-04-15T04:06:11;99791.00;;;7.00
20289;BMP180;10303;51.960;8.372;2023-04-15T04:08:37;99789.00;;;7.00
20289;BMP180;10303;51.960;8.372;2023-04-15T04:11:03;99798.00;;;7.00
20289;BMP180;10303;51.960;8.372;2023-04-15T04:13:30;99796.00;;;7.00
20289;BMP180;10303;51.960;8.372;2023-04-15T04:15:56;99804.00;;;7.00
20289;BMP180;10303;51.960;8.372;2023-04-15T04:18:22;99796.00;;;7.00
20289;BMP180;10303;51.960;8.372;2023-04-15T04:20:48;99807.00;;;7.00
20289;BMP180;10303;51.960;8.372;2023-04-15T04:23:14;99805.00;;;7.00
20289;BMP180;10303;51.960;8.372;2023-04-15T04:25:40;99805.00;;;7.00
20289;BMP180;10303;51.960;8.372;2023-04-15T04:28:07;99804.00;;;7.00
20289;BMP180;10303;51.960;8.372;2023-04-15T04:30:35;99800.00;;;7.00
20289;BMP180;10303;51.960;8.372;2023-04-15T04:33:01;99801.00;;;7.00
20289;BMP180;10303;51.960;8.372;2023-04-15T04:35:27;99806.00;;;7.00
20289;BMP180;10303;51.960;8.372;2023-04-15T04:37:52;99806.00;;;7.00
20289;BMP180;10303;51.960;8.372;2023-04-15T04:40:19;99798.00;;;7.00
20289;BMP180;10303;51.960;8.372;2023-04-15T04:42:45;99804.00;;;7.00
20289;BMP180;10303;51.960;8.372;2023-04-15T04:45:11;99796.00;;;7.00
20289;BMP180;10303;51.960;8.372;2023-04-15T04:47:37;99799.00;;;7.00
20289;BMP180;10303;51.960;8.372;2023-04-15T04:50:03;99802.00;;;7.00
20289;BMP180;10303;51.960;8.372;2023-04-15T04:52:29;99794.00;;;7.10
20289;BMP180;10303;51.960;8.372;2023-04-15T04:54:55;99801.00;;;7.10
20289;BMP180;10303;51.960;8.372;2023-04-15T04:57:21;99804.00;;;7.10
20289;BMP180;10303;51.960;8.372;2023-04-15T04:59:47;99801.00;;;7.10
20289;BMP180;10303;51.960;8.372;2023-04-15T05:02:13;99805.00;;;7.10
20289;BMP180;10303;51.960;8.372;2023-04-15T05:04:38;99804.00;;;7.20
20289;BMP180;10303;51.960;8.372;2023-04-15T05:07:06;99805.00;;;7.20
20289;BMP180;10303;51.960;8.372;2023-04-15T05:09:32;99812.00;;;7.30
20289;BMP180;10303;51.960;8.372;2023-04-15T05:12:01;99819.00;;;7.30
20289;BMP180;10303;51.960;8.372;2023-04-15T05:14:26;99820.00;;;7.40
20289;BMP180;10303;51.960;8.372;2023-04-15T05:16:52;99822.00;;;7.40
20289;BMP180;10303;51.960;8.372;2023-04-15T05:19:18;99823.00;;;7.50
20289;BMP180;10303;51.960;8.372;2023-04-15T05:21:44;99824.00;;;7.50
20289;BMP180;10303;51.960;8.372;2023-04-15T05:24:10;99825.00;;;7.50
20289;BMP180;10303;51.960;8.372;2023-04-15T05:26:36;99817.00;;;7.60
20289;BMP180;10303;51.960;8.372;2023-04-15T05:29:02;99830.00;;;7.70
20289;BMP180;10303;51.960;8.372;2023-04-15T05:31:28;99835.00;;;7.70
20289;BMP180;10303;51.960;8.372;2023-04-15T05:33:54;99839.00;;;7.80
20289;BMP180;10303;51.960;8.372;2023-04-15T05:36:20;99830.00;;;7.80
20289;BMP180;10303;51.960;8.372;2023-04-15T05:38:46;99842.00;;;7.90
20289;BMP180;10303;51.960;8.372;2023-04-15T05:41:12;99844.00;;;8.00
20289;BMP180;10303;51.960;8.372;2023-04-15T05:43:40;99838.00;;;8.10
20289;BMP180;10303;51.960;8.372;2023-04-15T05:46:06;99844.00;;;8.20
20289;BMP180;10303;51.960;8.372;2023-04-15T05:48:33;99840.00;;;8.30
20289;BMP180;10303;51.960;8.372;2023-04-15T05:50:59;99852.00;;;8.40
20289;BMP180;10303;51.960;8.372;2023-04-15T05:53:26;99842.00;;;8.40
20289;BMP180;10303;51.960;8.372;2023-04-15T05:55:51;99846.00;;;8.50
20289;BMP180;10303;51.960;8.372;2023-04-15T05:58:17;99853.00;;;8.60
20289;BMP180;10303;51.960;8.372;2023-04-15T06:00:43;99853.00;;;8.70
20289;BMP180;10303;51.960;8.372;2023-04-15T06:03:10;99860.00;;;8.80
20289;BMP180;10303;51.960;8.372;2023-04-15T06:05:36;99865.00;;;8.90
20289;BMP180;10303;51.960;8.372;2023-04-15T06:08:03;99868.00;;;8.90
20289;BMP180;10303;51.960;8.372;2023-04-15T06:10:29;99865.00;;;9.00
20289;BMP180;10303;51.960;8.372;2023-04-15T06:12:55;99875.00;;;9.10
20289;BMP180;10303;51.960;8.372;2023-04-15T06:15:21;99874.00;;;9.20
20289;BMP180;10303;51.960;8.372;2023-04-15T06:17:47;99877.00;;;9.30
20289;BMP180;10303;51.960;8.372;2023-04-15T06:20:13;99871.00;;;9.30
20289;BMP180;10303;51.960;8.372;2023-04-15T06:22:39;99882.00;;;9.40
20289;BMP180;10303;51.960;8.372;2023-04-15T06:25:06;99872.00;;;9.50
20289;BMP180;10303;51.960;8.372;2023-04-15T06:27:35;99881.00;;;9.60
20289;BMP180;10303;51.960;8.372;2023-04-15T06:30:02;99873.00;;;9.70
20289;BMP180;10303;51.960;8.372;2023-04-15T06:32:28;99877.00;;;9.70
20289;BMP180;10303;51.960;8.372;2023-04-15T06:34:54;99888.00;;;9.80
20289;BMP180;10303;51.960;8.372;2023-04-15T06:37:19;99885.00;;;9.90
20289;BMP180;10303;51.960;8.372;2023-04-15T06:39:45;99885.00;;;10.00
20289;BMP180;10303;51.960;8.372;2023-04-15T06:42:11;99887.00;;;10.10
20289;BMP180;10303;51.960;8.372;2023-04-15T06:44:37;99887.00;;;10.10
20289;BMP180;10303;51.960;8.372;2023-04-15T06:47:03;99884.00;;;10.20
20289;BMP180;10303;51.960;8.372;2023-04-15T06:49:29;99880.00;;;10.30
20289;BMP180;10303;51.960;8.372;2023-04-15T06:51:55;99886.00;;;10.40
20289;BMP180;10303;51.960;8.372;2023-04-15T06:54:21;99885.00;;;10.50
20289;BMP180;10303;51.960;8.372;2023-04-15T06:56:47;99884.00;;;10.60
20289;BMP180;10303;51.960;8.372;2023-04-15T06:59:13;99893.00;;;10.70
20289;BMP180;10303;51.960;8.372;2023-04-15T07:01:42;99897.00;;;10.80
20289;BMP180;10303;51.960;8.372;2023-04-15T07:04:08;99894.00;;;10.90
20289;BMP180;10303;51.960;8.372;2023-04-15T07:06:34;99887.00;;;10.90
20289;BMP180;10303;51.960;8.372;2023-04-15T07:09:00;99897.00;;;11.00
20289;BMP180;10303;51.960;8.372;2023-04-15T07:11:28;99896.00;;;11.00
20289;BMP180;10303;51.960;8.372;2023-04-15T07:13:54;99892.00;;;11.00
20289;BMP180;10303;51.960;8.372;2023-04-15T07:16:19;99900.00;;;11.00
20289;BMP180;10303;51.960;8.372;2023-04-15T07:18:45;99892.00;;;11.00
20289;BMP180;10303;51.960;8.372;2023-04-15T07:21:11;99895.00;;;11.00
20289;BMP180;10303;51.960;8.372;2023-04-15T07:23:37;99893.00;;;11.00
20289;BMP180;10303;51.960;8.372;2023-04-15T07:26:03;99901.00;;;11.00
20289;BMP180;10303;51.960;8.372;2023-04-15T07:28:29;99909.00;;;11.00
20289;BMP180;10303;51.960;8.372;2023-04-15T07:30:55;99908.00;;;11.10
20289;BMP180;10303;51.960;8.372;2023-04-15T07:33:24;99913.00;;;11.10
20289;BMP180;10303;51.960;8.372;2023-04-15T07:35:50;99904.00;;;11.10
20289;BMP180;10303;51.960;8.372;2023-04-15T07:38:16;99916.00;;;11.20
20289;BMP180;10303;51.960;8.372;2023-04-15T07:40:42;99913.00;;;11.20
20289;BMP180;10303;51.960;8.372;2023-04-15T07:43:08;99915.00;;;11.20
20289;BMP180;10303;51.960;8.372;2023-04-15T07:45:34;99919.00;;;11.30
20289;BMP180;10303;51.960;8.372;2023-04-15T07:48:01;99914.00;;;11.30
20289;BMP180;10303;51.960;8.372;2023-04-15T07:50:28;99923.00;;;11.30
20289;BMP180;10303;51.960;8.372;2023-04-15T07:52:54;99916.00;;;11.30
20289;BMP180;10303;51.960;8.372;2023-04-15T07:55:19;99915.00;;;11.30
20289;BMP180;10303;51.960;8.372;2023-04-15T07:57:48;99914.00;;;11.30
20289;BMP180;10303;51.960;8.372;2023-04-15T08:00:15;99920.00;;;11.40
20289;BMP180;10303;51.960;8.372;2023-04-15T08:02:42;99936.00;;;11.40
20289;BMP180;10303;51.960;8.372;2023-04-15T08:05:09;99931.00;;;11.40
20289;BMP180;10303;51.960;8.372;2023-04-15T08:07:37;99924.00;;;11.40
20289;BMP180;10303;51.960;8.372;2023-04-15T08:10:03;99925.00;;;11.40
20289;BMP180;10303;51.960;8.372;2023-04-15T08:12:29;99940.00;;;11.40
20289;BMP180;10303;51.960;8.372;2023-04-15T08:14:56;99938.00;;;11.40
20289;BMP180;10303;51.960;8.372;2023-04-15T08:17:22;99934.00;;;11.40
20289;BMP180;10303;51.960;8.372;2023-04-15T08:19:48;99935.00;;;11.50
20289;BMP180;10303;51.960;8.372;2023-04-15T08:22:14;99938.00;;;11.50
20289;BMP180;10303;51.960;8.372;2023-04-15T08:24:41;99943.00;;;11.50
20289;BMP180;10303;51.960;8.372;2023-04-15T08:27:07;99946.00;;;11.60
20289;BMP180;10303;51.960;8.372;2023-04-15T08:29:34;99934.00;;;11.60
20289;BMP180;10303;51.960;8.372;2023-04-15T08:32:00;99939.00;;;11.60
20289;BMP180;10303;51.960;8.372;2023-04-15T08:34:27;99942.00;;;11.60
20289;BMP180;10303;51.960;8.372;2023-04-15T08:36:53;99944.00;;;11.60
20289;BMP180;10303;51.960;8.372;2023-04-15T08:39:20;99938.00;;;11.70
20289;BMP180;10303;51.960;8.372;2023-04-15T08:41:55;99941.00;;;11.70
20289;BMP180;10303;51.960;8.372;2023-04-15T08:44:24;99949.00;;;11.70
20289;BMP180;10303;51.960;8.372;2023-04-15T08:46:52;99951.00;;;11.70
20289;BMP180;10303;51.960;8.372;2023-04-15T08:49:20;99952.00;;;11.70
20289;BMP180;10303;51.960;8.372;2023-04-15T08:51:48;99949.00;;;11.80
20289;BMP180;10303;51.960;8.372;2023-04-15T08:54:15;99951.00;;;11.70
20289;BMP180;10303;51.960;8.372;2023-04-15T08:56:41;99945.00;;;11.70
20289;BMP180;10303;51.960;8.372;2023-04-15T08:59:07;99949.00;;;11.70
20289;BMP180;10303;51.960;8.372;2023-04-15T09:01:36;99945.00;;;11.70
20289;BMP180;10303;51.960;8.372;2023-04-15T09:04:02;99957.00;;;11.80
20289;BMP180;10303;51.960;8.372;2023-04-15T09:06:33;99949.00;;;11.80
20289;BMP180;10303;51.960;8.372;2023-04-15T09:08:59;99943.00;;;11.90
20289;BMP180;10303;51.960;8.372;2023-04-15T09:11:25;99948.00;;;11.90
20289;BMP180;10303;51.960;8.372;2023-04-15T09:13:51;99937.00;;;11.90
20289;BMP180;10303;51.960;8.372;2023-04-15T09:16:17;99943.00;;;12.00
20289;BMP180;10303;51.960;8.372;2023-04-15T09:18:44;99944.00;;;12.00
20289;BMP180;10303;51.960;8.372;2023-04-15T09:21:13;99951.00;;;12.10
20289;BMP180;10303;51.960;8.372;2023-04-15T09:23:54;99957.00;;;12.10
20289;BMP180;10303;51.960;8.372;2023-04-15T09:26:36;99958.00;;;12.10
20289;BMP180;10303;51.960;8.372;2023-04-15T09:29:05;99955.00;;;12.20
20289;BMP180;10303;51.960;8.372;2023-04-15T09:31:32;99959.00;;;12.20
20289;BMP180;10303;51.960;8.372;2023-04-15T09:33:58;99960.00;;;12.30
20289;BMP180;10303;51.960;8.372;2023-04-15T09:36:25;99955.00;;;12.40
20289;BMP180;10303;51.960;8.372;2023-04-15T09:38:56;99968.00;;;12.40
20289;BMP180;10303;51.960;8.372;2023-04-15T09:41:26;99973.00;;;12.40
20289;BMP180;10303;51.960;8.372;2023-04-15T09:43:52;99971.00;;;12.50
20289;BMP180;10303;51.960;8.372;2023-04-15T09:46:18;99968.00;;;12.50
20289;BMP180;10303;51.960;8.372;2023-04-15T09:48:44;99969.00;;;12.50
20289;BMP180;10303;51.960;8.372;2023-04-15T09:51:10;99974.00;;;12.60
20289;BMP180;10303;51.960;8.372;2023-04-15T09:53:36;99976.00;;;12.60
20289;BMP180;10303;51.960;8.372;2023-04-15T09:56:05;99978.00;;;12.60
20289;BMP180;10303;51.960;8.372;2023-04-15T09:58:34;99979.00;;;12.60
20289;BMP180;10303;51.960;8.372;2023-04-15T10:01:05;99987.00;;;12.60
20289;BMP180;10303;51.960;8.372;2023-04-15T10:03:34;99979.00;;;12.70
20289;BMP180;10303;51.960;8.372;2023-04-15T10:06:02;99994.00;;;12.70
20289;BMP180;10303;51.960;8.372;2023-04-15T10:08:32;99986.00;;;12.70
20289;BMP180;10303;51.960;8.372;2023-04-15T10:11:01;99989.00;;;12.70
20289;BMP180;10303;51.960;8.372;2023-04-15T10:13:30;99994.00;;;12.80
20289;BMP180;10303;51.960;8.372;2023-04-15T10:16:20;99984.00;;;12.80
20289;BMP180;10303;51.960;8.372;2023-04-15T10:18:54;99992.00;;;12.80
20289;BMP180;10303;51.960;8.372;2023-04-15T10:21:21;99983.00;;;12.80
20289;BMP180;10303;51.960;8.372;2023-04-15T10:23:48;99974.00;;;12.80
20289;BMP180;10303;51.960;8.372;2023-04-15T10:26:16;99982.00;;;12.80
20289;BMP180;10303;51.960;8.372;2023-04-15T10:28:46;99980.00;;;12.70
20289;BMP180;10303;51.960;8.372;2023-04-15T10:31:13;99992.00;;;12.70
20289;BMP180;10303;51.960;8.372;2023-04-15T10:33:42;99977.00;;;12.70
20289;BMP180;10303;51.960;8.372;2023-04-15T10:36:10;99973.00;;;12.70
20289;BMP180;10303;51.960;8.372;2023-04-15T10:38:44;99987.00;;;12.70
20289;BMP180;10303;51.960;8.372;2023-04-15T10:41:22;99982.00;;;12.60
20289;BMP180;10303;51.960;8.372;2023-04-15T10:44:00;99988.00;;;12.60
20289;BMP180;10303;51.960;8.372;2023-04-15T10:46:42;99996.00;;;12.60
20289;BMP180;10303;51.960;8.372;2023-04-15T10:49:25;99999.00;;;12.60
20289;BMP180;10303;51.960;8.372;2023-04-15T10:51:57;99998.00;;;12.60
20289;BMP180;10303;51.960;8.372;2023-04-15T10:57:14;99999.00;;;12.60
20289;BMP180;10303;51.960;8.372;2023-04-15T11:00:08;100005.00;;;12.50
20289;BMP180;10303;51.960;8.372;2023-04-15T11:03:06;99995.00;;;12.50
20289;BMP180;10303;51.960;8.372;2023-04-15T11:05:48;100001.00;;;12.50
20289;BMP180;10303;51.960;8.372;2023-04-15T11:08:15;100009.00;;;12.50
20289;BMP180;10303;51.960;8.372;2023-04-15T11:15:48;100005.00;;;12.50
20289;BMP180;10303;51.960;8.372;2023-04-15T11:18:29;100016.00;;;12.50
20289;BMP180;10303;51.960;8.372;2023-04-15T11:21:02;100011.00;;;12.50
20289;BMP180;10303;51.960;8.372;2023-04-15T11:26:03;100006.00;;;12.50
20289;BMP180;10303;51.960;8.372;2023-04-15T11:28:32;100019.00;;;12.50
20289;BMP180;10303;51.960;8.372;2023-04-15T11:31:05;100018.00;;;12.40
20289;BMP180;10303;51.960;8.372;2023-04-15T11:33:31;100018.00;;;12.50
20289;BMP180;10303;51.960;8.372;2023-04-15T11:35:58;100024.00;;;12.40
20289;BMP180;10303;51.960;8.372;2023-04-15T11:38:24;100037.00;;;12.50
20289;BMP180;10303;51.960;8.372;2023-04-15T11:40:50;100031.00;;;12.50
20289;BMP180;10303;51.960;8.372;2023-04-15T11:43:20;100043.00;;;12.50
20289;BMP180;10303;51.960;8.372;2023-04-15T11:45:57;100041.00;;;12.40
20289;BMP180;10303;51.960;8.372;2023-04-15T11:48:29;100046.00;;;12.50
20289;BMP180;10303;51.960;8.372;2023-04-15T11:51:04;100037.00;;;12.50
20289;BMP180;10303;51.960;8.372;2023-04-15T11:53:49;100046.00;;;12.50
20289;BMP180;10303;51.960;8.372;2023-04-15T11:56:20;100050.00;;;12.50
20289;BMP180;10303;51.960;8.372;2023-04-15T11:58:52;100053.00;;;12.50
20289;BMP180;10303;51.960;8.372;2023-04-15T12:01:18;100046.00;;;12.50
20289;BMP180;10303;51.960;8.372;2023-04-15T12:03:45;100058.00;;;12.50
20289;BMP180;10303;51.960;8.372;2023-04-15T12:06:19;100066.00;;;12.50
20289;BMP180;10303;51.960;8.372;2023-04-15T12:11:31;100055.00;;;12.50
20289;BMP180;10303;51.960;8.372;2023-04-15T12:14:07;100073.00;;;12.50
20289;BMP180;10303;51.960;8.372;2023-04-15T12:16:40;100070.00;;;12.50
20289;BMP180;10303;51.960;8.372;2023-04-15T12:19:12;100063.00;;;12.50
20289;BMP180;10303;51.960;8.372;2023-04-15T12:21:43;100073.00;;;12.50
20289;BMP180;10303;51.960;8.372;2023-04-15T12:24:11;100062.00;;;12.50
20289;BMP180;10303;51.960;8.372;2023-04-15T12:26:43;100073.00;;;12.50
20289;BMP180;10303;51.960;8.372;2023-04-15T12:29:11;100073.00;;;12.60
20289;BMP180;10303;51.960;8.372;2023-04-15T12:32:05;100083.00;;;12.50
20289;BMP180;10303;51.960;8.372;2023-04-15T12:34:35;100084.00;;;12.60
20289;BMP180;10303;51.960;8.372;2023-04-15T12:37:04;100097.00;;;12.60
20289;BMP180;10303;51.960;8.372;2023-04-15T12:39:35;100088.00;;;12.60
20289;BMP180;10303;51.960;8.372;2023-04-15T12:42:03;100097.00;;;12.60
20289;BMP180;10303;51.960;8.372;2023-04-15T12:44:30;100109.00;;;12.60
20289;BMP180;10303;51.960;8.372;2023-04-15T12:46:56;100099.00;;;12.60
20289;BMP180;10303;51.960;8.372;2023-04-15T12:49:23;100113.00;;;12.60
20289;BMP180;10303;51.960;8.372;2023-04-15T12:51:53;100109.00;;;12.60
20289;BMP180;10303;51.960;8.372;2023-04-15T12:54:20;100116.00;;;12.60
20289;BMP180;10303;51.960;8.372;2023-04-15T12:56:48;100121.00;;;12.60
20289;BMP180;10303;51.960;8.372;2023-04-15T12:59:16;100117.00;;;12.70
20289;BMP180;10303;51.960;8.372;2023-04-15T13:01:46;100117.00;;;12.60
20289;BMP180;10303;51.960;8.372;2023-04-15T13:04:14;100118.00;;;12.60
20289;BMP180;10303;51.960;8.372;2023-04-15T13:06:41;100121.00;;;12.60
20289;BMP180;10303;51.960;8.372;2023-04-15T13:09:07;100119.00;;;12.60
20289;BMP180;10303;51.960;8.372;2023-04-15T13:11:33;100116.00;;;12.60
20289;BMP180;10303;51.960;8.372;2023-04-15T13:14:05;100129.00;;;12.60
20289;BMP180;10303;51.960;8.372;2023-04-15T13:16:32;100121.00;;;12.60
20289;BMP180;10303;51.960;8.372;2023-04-15T13:19:00;100130.00;;;12.60
20289;BMP180;10303;51.960;8.372;2023-04-15T13:21:27;100123.00;;;12.60
20289;BMP180;10303;51.960;8.372;2023-04-15T13:23:53;100123.00;;;12.60
20289;BMP180;10303;51.960;8.372;2023-04-15T13:26:19;100127.00;;;12.60
20289;BMP180;10303;51.960;8.372;2023-04-15T13:28:46;100124.00;;;12.60
20289;BMP180;10303;51.960;8.372;2023-04-15T13:31:12;100121.00;;;12.60
20289;BMP180;10303;51.960;8.372;2023-04-15T13:33:38;100123.00;;;12.70
20289;BMP180;10303;51.960;8.372;2023-04-15T13:36:04;100133.00;;;12.70
20289;BMP180;10303;51.960;8.372;2023-04-15T13:38:30;100124.00;;;12.70
20289;BMP180;10303;51.960;8.372;2023-04-15T13:40:55;100130.00;;;12.70
20289;BMP180;10303;51.960;8.372;2023-04-15T13:43:21;100137.00;;;12.70
20289;BMP180;10303;51.960;8.372;2023-04-15T13:45:48;100146.00;;;12.60
20289;BMP180;10303;51.960;8.372;2023-04-15T13:48:14;100148.00;;;12.70
20289;BMP180;10303;51.960;8.372;2023-04-15T13:50:40;100146.00;;;12.60
20289;BMP180;10303;51.960;8.372;2023-04-15T13:53:11;100145.00;;;12.60
20289;BMP180;10303;51.960;8.372;2023-04-15T13:55:37;100143.00;;;12.60
20289;BMP180;10303;51.960;8.372;2023-04-15T13:58:10;100147.00;;;12.60
20289;BMP180;10303;51.960;8.372;2023-04-15T14:00:36;100157.00;;;12.60
20289;BMP180;10303;51.960;8.372;2023-04-15T14:03:02;100149.00;;;12.50
20289;BMP180;10303;51.960;8.372;2023-04-15T14:05:28;100156.00;;;12.60
20289;BMP180;10303;51.960;8.372;2023-04-15T14:07:54;100155.00;;;12.60
20289;BMP180;10303;51.960;8.372;2023-04-15T14:10:20;100165.00;;;12.60
20289;BMP180;10303;51.960;8.372;2023-04-15T14:12:46;100165.00;;;12.60
20289;BMP180;10303;51.960;8.372;2023-04-15T14:15:11;100164.00;;;12.60
20289;BMP180;10303;51.960;8.372;2023-04-15T14:17:37;100176.00;;;12.60
20289;BMP180;10303;51.960;8.372;2023-04-15T14:20:07;100181.00;;;12.50
20289;BMP180;10303;51.960;8.372;2023-04-15T14:22:33;100179.00;;;12.50
20289;BMP180;10303;51.960;8.372;2023-04-15T14:24:59;100188.00;;;12.50
20289;BMP180;10303;51.960;8.372;2023-04-15T14:27:25;100186.00;;;12.50